sensor_id;sensor_type;location;lat;lon;timestamp;P1;durP1;ratioP1;P2;durP2;ratioP2
45103;SDS011;30865;51.288;4.572;2022-12-29T00:01:13;7.65;;;4.55;;
45103;SDS011;30865;51.288;4.572;2022-12-29T00:03:39;8.55;;;4.78;;
45103;SDS011;30865;51.288;4.572;2022-12-29T00:06:04;10.82;;;5.38;;
45103;SDS011;30865;51.288;4.572;2022-12-29T00:08:30;7.97;;;5.15;;
45103;SDS011;30865;51.288;4.572;2022-12-29T00:11:05;10.18;;;5.03;;
45103;SDS011;30865;51.288;4.572;2022-12-29T00:13:35;8.48;;;5.10;;
45103;SDS011;30865;51.288;4.572;2022-12-29T00:16:20;6.57;;;4.72;;
45103;SDS011;30865;51.288;4.572;2022-12-29T00:18:45;8.52;;;4.85;;
45103;SDS011;30865;51.288;4.572;2022-12-29T00:21:15;6.60;;;5.00;;
45103;SDS011;30865;51.288;4.572;2022-12-29T00:24:00;7.50;;;4.85;;
45103;SDS011;30865;51.288;4.572;2022-12-29T00:26:45;8.30;;;4.82;;
45103;SDS011;30865;51.288;4.572;2022-12-29T00:29:30;6.90;;;4.90;;
45103;SDS011;30865;51.288;4.572;2022-12-29T00:32:14;9.35;;;4.85;;
45103;SDS011;30865;51.288;4.572;2022-12-29T00:34:58;8.32;;;5.55;;
45103;SDS011;30865;51.288;4.572;2022-12-29T00:37:32;8.80;;;5.32;;
45103;SDS011;30865;51.288;4.572;2022-12-29T00:40:17;6.47;;;4.80;;
45103;SDS011;30865;51.288;4.572;2022-12-29T00:43:01;8.25;;;5.43;;
45103;SDS011;30865;51.288;4.572;2022-12-29T00:45:46;6.53;;;4.32;;
45103;SDS011;30865;51.288;4.572;2022-12-29T00:48:11;6.32;;;4.20;;
45103;SDS011;30865;51.288;4.572;2022-12-29T00:50:37;8.43;;;4.50;;
45103;SDS011;30865;51.288;4.572;2022-12-29T00:53:02;9.23;;;5.00;;
45103;SDS011;30865;51.288;4.572;2022-12-29T00:55:28;8.77;;;5.10;;
45103;SDS011;30865;51.288;4.572;2022-12-29T00:57:53;7.07;;;4.90;;
45103;SDS011;30865;51.288;4.572;2022-12-29T01:00:19;8.20;;;5.40;;
45103;SDS011;30865;51.288;4.572;2022-12-29T01:02:44;10.38;;;5.70;;
45103;SDS011;30865;51.288;4.572;2022-12-29T01:05:10;8.73;;;5.03;;
45103;SDS011;30865;51.288;4.572;2022-12-29T01:07:35;10.60;;;6.60;;
45103;SDS011;30865;51.288;4.572;2022-12-29T01:10:01;12.65;;;6.97;;
45103;SDS011;30865;51.288;4.572;2022-12-29T01:12:35;9.07;;;5.93;;
45103;SDS011;30865;51.288;4.572;2022-12-29T01:15:07;10.85;;;6.35;;
45103;SDS011;30865;51.288;4.572;2022-12-29T01:17:34;11.15;;;5.10;;
45103;SDS011;30865;51.288;4.572;2022-12-29T01:20:00;9.25;;;5.72;;
45103;SDS011;30865;51.288;4.572;2022-12-29T01:22:26;8.65;;;5.22;;
45103;SDS011;30865;51.288;4.572;2022-12-29T01:24:51;10.63;;;4.88;;
45103;SDS011;30865;51.288;4.572;2022-12-29T01:27:17;7.18;;;4.63;;
45103;SDS011;30865;51.288;4.572;2022-12-29T01:29:42;7.50;;;5.13;;
45103;SDS011;30865;51.288;4.572;2022-12-29T01:32:08;7.95;;;4.80;;
45103;SDS011;30865;51.288;4.572;2022-12-29T01:34:33;7.68;;;5.03;;
45103;SDS011;30865;51.288;4.572;2022-12-29T01:36:59;7.60;;;4.80;;
45103;SDS011;30865;51.288;4.572;2022-12-29T01:39:24;6.72;;;4.90;;
45103;SDS011;30865;51.288;4.572;2022-12-29T01:41:50;8.10;;;4.75;;
45103;SDS011;30865;51.288;4.572;2022-12-29T01:47:19;8.38;;;5.72;;
45103;SDS011;30865;51.288;4.572;2022-12-29T01:49:51;11.02;;;6.43;;
45103;SDS011;30865;51.288;4.572;2022-12-29T01:52:19;10.18;;;5.60;;
45103;SDS011;30865;51.288;4.572;2022-12-29T01:54:49;9.27;;;5.57;;
45103;SDS011;30865;51.288;4.572;2022-12-29T01:57:18;9.93;;;4.22;;
45103;SDS011;30865;51.288;4.572;2022-12-29T01:59:48;10.50;;;5.95;;
45103;SDS011;30865;51.288;4.572;2022-12-29T02:02:20;6.57;;;4.55;;
45103;SDS011;30865;51.288;4.572;2022-12-29T02:04:45;7.63;;;4.63;;
45103;SDS011;30865;51.288;4.572;2022-12-29T02:07:19;11.95;;;5.55;;
45103;SDS011;30865;51.288;4.572;2022-12-29T02:09:48;6.70;;;4.85;;
45103;SDS011;30865;51.288;4.572;2022-12-29T02:12:14;8.50;;;5.15;;
45103;SDS011;30865;51.288;4.572;2022-12-29T02:14:43;7.32;;;5.10;;
45103;SDS011;30865;51.288;4.572;2022-12-29T02:17:18;10.30;;;5.80;;
45103;SDS011;30865;51.288;4.572;2022-12-29T02:22:34;7.93;;;4.15;;
45103;SDS011;30865;51.288;4.572;2022-12-29T02:30:55;7.47;;;3.97;;
45103;SDS011;30865;51.288;4.572;2022-12-29T02:39:12;5.97;;;3.85;;
45103;SDS011;30865;51.288;4.572;2022-12-29T02:42:02;7.97;;;4.53;;
45103;SDS011;30865;51.288;4.572;2022-12-29T02:47:40;8.35;;;4.05;;
45103;SDS011;30865;51.288;4.572;2022-12-29T02:52:57;7.20;;;3.75;;
45103;SDS011;30865;51.288;4.572;2022-12-29T02:55:29;5.22;;;3.63;;
45103;SDS011;30865;51.288;4.572;2022-12-29T03:00:46;5.72;;;3.80;;
45103;SDS011;30865;51.288;4.572;2022-12-29T03:09:22;7.28;;;3.92;;
45103;SDS011;30865;51.288;4.572;2022-12-29T03:12:09;6.63;;;4.07;;
45103;SDS011;30865;51.288;4.572;2022-12-29T03:15:17;6.45;;;3.90;;
45103;SDS011;30865;51.288;4.572;2022-12-29T03:18:15;8.63;;;4.07;;
45103;SDS011;30865;51.288;4.572;2022-12-29T03:21:10;8.18;;;3.35;;
45103;SDS011;30865;51.288;4.572;2022-12-29T03:24:09;5.25;;;3.30;;
45103;SDS011;30865;51.288;4.572;2022-12-29T03:26:36;7.07;;;4.40;;
45103;SDS011;30865;51.288;4.572;2022-12-29T03:29:02;7.05;;;3.95;;
45103;SDS011;30865;51.288;4.572;2022-12-29T03:31:30;7.20;;;3.50;;
45103;SDS011;30865;51.288;4.572;2022-12-29T03:33:56;5.55;;;3.30;;
45103;SDS011;30865;51.288;4.572;2022-12-29T03:36:26;5.10;;;3.35;;
45103;SDS011;30865;51.288;4.572;2022-12-29T03:38:59;6.03;;;3.65;;
45103;SDS011;30865;51.288;4.572;2022-12-29T03:41:33;5.78;;;3.42;;
45103;SDS011;30865;51.288;4.572;2022-12-29T03:44:00;2.83;;;2.53;;
45103;SDS011;30865;51.288;4.572;2022-12-29T03:46:25;4.30;;;2.25;;
45103;SDS011;30865;51.288;4.572;2022-12-29T03:48:51;4.85;;;2.15;;
45103;SDS011;30865;51.288;4.572;2022-12-29T03:51:16;5.90;;;2.60;;
45103;SDS011;30865;51.288;4.572;2022-12-29T03:53:42;4.88;;;2.03;;
45103;SDS011;30865;51.288;4.572;2022-12-29T03:56:07;2.90;;;1.60;;
45103;SDS011;30865;51.288;4.572;2022-12-29T03:58:32;2.35;;;1.27;;
45103;SDS011;30865;51.288;4.572;2022-12-29T04:00:58;4.55;;;1.10;;
45103;SDS011;30865;51.288;4.572;2022-12-29T04:03:23;1.85;;;1.30;;
45103;SDS011;30865;51.288;4.572;2022-12-29T04:05:49;2.22;;;1.15;;
45103;SDS011;30865;51.288;4.572;2022-12-29T04:08:15;4.07;;;1.23;;
45103;SDS011;30865;51.288;4.572;2022-12-29T04:10:40;2.60;;;1.48;;
45103;SDS011;30865;51.288;4.572;2022-12-29T04:13:05;3.75;;;1.40;;
45103;SDS011;30865;51.288;4.572;2022-12-29T04:15:31;2.72;;;1.20;;
45103;SDS011;30865;51.288;4.572;2022-12-29T04:17:57;2.88;;;1.27;;
45103;SDS011;30865;51.288;4.572;2022-12-29T04:20:22;1.83;;;1.00;;
45103;SDS011;30865;51.288;4.572;2022-12-29T04:23:06;3.15;;;0.98;;
45103;SDS011;30865;51.288;4.572;2022-12-29T04:25:32;1.83;;;0.95;;
45103;SDS011;30865;51.288;4.572;2022-12-29T04:27:58;2.28;;;1.65;;
45103;SDS011;30865;51.288;4.572;2022-12-29T04:30:25;2.53;;;1.20;;
45103;SDS011;30865;51.288;4.572;2022-12-29T04:32:50;3.70;;;1.52;;
45103;SDS011;30865;51.288;4.572;2022-12-29T04:35:16;5.18;;;1.50;;
45103;SDS011;30865;51.288;4.572;2022-12-29T04:37:42;3.83;;;1.35;;
45103;SDS011;30865;51.288;4.572;2022-12-29T04:40:07;4.25;;;1.95;;
45103;SDS011;30865;51.288;4.572;2022-12-29T04:42:33;3.03;;;1.65;;
45103;SDS011;30865;51.288;4.572;2022-12-29T04:44:59;3.60;;;1.40;;
45103;SDS011;30865;51.288;4.572;2022-12-29T04:47:24;2.13;;;1.50;;
45103;SDS011;30865;51.288;4.572;2022-12-29T04:49:50;3.67;;;1.48;;
45103;SDS011;30865;51.288;4.572;2022-12-29T04:52:15;1.90;;;1.23;;
45103;SDS011;30865;51.288;4.572;2022-12-29T04:54:41;1.63;;;1.20;;
45103;SDS011;30865;51.288;4.572;2022-12-29T04:57:06;2.08;;;1.25;;
45103;SDS011;30865;51.288;4.572;2022-12-29T04:59:32;1.85;;;1.10;;
45103;SDS011;30865;51.288;4.572;2022-12-29T05:01:57;4.63;;;1.20;;
45103;SDS011;30865;51.288;4.572;2022-12-29T05:04:23;5.43;;;1.30;;
45103;SDS011;30865;51.288;4.572;2022-12-29T05:06:48;1.98;;;1.00;;
45103;SDS011;30865;51.288;4.572;2022-12-29T05:09:14;1.27;;;0.93;;
45103;SDS011;30865;51.288;4.572;2022-12-29T05:11:39;1.40;;;0.90;;
45103;SDS011;30865;51.288;4.572;2022-12-29T05:14:05;2.42;;;1.27;;
45103;SDS011;30865;51.288;4.572;2022-12-29T05:16:30;2.03;;;1.30;;
45103;SDS011;30865;51.288;4.572;2022-12-29T05:18:56;3.05;;;1.65;;
45103;SDS011;30865;51.288;4.572;2022-12-29T05:21:21;1.58;;;1.00;;
45103;SDS011;30865;51.288;4.572;2022-12-29T05:23:47;1.63;;;0.95;;
45103;SDS011;30865;51.288;4.572;2022-12-29T05:26:13;19.08;;;2.35;;
45103;SDS011;30865;51.288;4.572;2022-12-29T05:28:38;3.88;;;1.35;;
45103;SDS011;30865;51.288;4.572;2022-12-29T05:31:04;2.67;;;1.30;;
45103;SDS011;30865;51.288;4.572;2022-12-29T05:33:29;1.20;;;1.10;;
45103;SDS011;30865;51.288;4.572;2022-12-29T05:35:55;4.55;;;1.38;;
45103;SDS011;30865;51.288;4.572;2022-12-29T05:38:20;3.88;;;1.52;;
45103;SDS011;30865;51.288;4.572;2022-12-29T05:40:46;4.80;;;1.25;;
45103;SDS011;30865;51.288;4.572;2022-12-29T05:43:11;3.30;;;1.50;;
45103;SDS011;30865;51.288;4.572;2022-12-29T05:45:37;2.28;;;1.30;;
45103;SDS011;30865;51.288;4.572;2022-12-29T05:48:03;3.38;;;1.08;;
45103;SDS011;30865;51.288;4.572;2022-12-29T05:50:28;3.22;;;1.50;;
45103;SDS011;30865;51.288;4.572;2022-12-29T05:52:54;2.15;;;1.60;;
45103;SDS011;30865;51.288;4.572;2022-12-29T05:55:19;2.85;;;1.20;;
45103;SDS011;30865;51.288;4.572;2022-12-29T05:57:45;1.83;;;1.23;;
45103;SDS011;30865;51.288;4.572;2022-12-29T06:00:11;2.85;;;1.60;;
45103;SDS011;30865;51.288;4.572;2022-12-29T06:02:37;5.43;;;1.38;;
45103;SDS011;30865;51.288;4.572;2022-12-29T06:05:02;4.95;;;1.40;;
45103;SDS011;30865;51.288;4.572;2022-12-29T06:07:28;1.83;;;1.30;;
45103;SDS011;30865;51.288;4.572;2022-12-29T06:09:53;2.30;;;1.60;;
45103;SDS011;30865;51.288;4.572;2022-12-29T06:12:19;2.30;;;1.50;;
45103;SDS011;30865;51.288;4.572;2022-12-29T06:14:44;5.15;;;1.30;;
45103;SDS011;30865;51.288;4.572;2022-12-29T06:17:10;6.10;;;1.85;;
45103;SDS011;30865;51.288;4.572;2022-12-29T06:19:36;2.80;;;1.08;;
45103;SDS011;30865;51.288;4.572;2022-12-29T06:22:01;2.22;;;1.52;;
45103;SDS011;30865;51.288;4.572;2022-12-29T06:24:27;2.85;;;1.20;;
45103;SDS011;30865;51.288;4.572;2022-12-29T06:26:52;2.92;;;1.00;;
45103;SDS011;30865;51.288;4.572;2022-12-29T06:29:18;3.40;;;1.17;;
45103;SDS011;30865;51.288;4.572;2022-12-29T06:31:45;2.97;;;1.38;;
45103;SDS011;30865;51.288;4.572;2022-12-29T06:34:11;1.70;;;1.05;;
45103;SDS011;30865;51.288;4.572;2022-12-29T06:36:37;1.33;;;1.10;;
45103;SDS011;30865;51.288;4.572;2022-12-29T06:39:03;3.65;;;1.27;;
45103;SDS011;30865;51.288;4.572;2022-12-29T06:41:29;4.05;;;1.30;;
45103;SDS011;30865;51.288;4.572;2022-12-29T06:43:54;6.97;;;1.50;;
45103;SDS011;30865;51.288;4.572;2022-12-29T06:46:20;3.30;;;1.65;;
45103;SDS011;30865;51.288;4.572;2022-12-29T06:48:45;3.95;;;1.73;;
45103;SDS011;30865;51.288;4.572;2022-12-29T06:51:11;2.28;;;1.30;;
45103;SDS011;30865;51.288;4.572;2022-12-29T06:53:36;5.28;;;1.45;;
45103;SDS011;30865;51.288;4.572;2022-12-29T06:56:02;4.15;;;1.27;;
45103;SDS011;30865;51.288;4.572;2022-12-29T06:58:27;4.80;;;1.40;;
45103;SDS011;30865;51.288;4.572;2022-12-29T07:00:53;4.18;;;1.48;;
45103;SDS011;30865;51.288;4.572;2022-12-29T07:03:18;3.35;;;1.20;;
45103;SDS011;30865;51.288;4.572;2022-12-29T07:05:44;2.55;;;1.40;;
45103;SDS011;30865;51.288;4.572;2022-12-29T07:08:09;2.88;;;1.27;;
45103;SDS011;30865;51.288;4.572;2022-12-29T07:10:35;3.55;;;1.10;;
45103;SDS011;30865;51.288;4.572;2022-12-29T07:13:00;4.90;;;1.73;;
45103;SDS011;30865;51.288;4.572;2022-12-29T07:15:26;3.55;;;1.50;;
45103;SDS011;30865;51.288;4.572;2022-12-29T07:17:51;1.77;;;1.33;;
45103;SDS011;30865;51.288;4.572;2022-12-29T07:20:17;6.68;;;1.40;;
45103;SDS011;30865;51.288;4.572;2022-12-29T07:22:42;5.70;;;2.30;;
45103;SDS011;30865;51.288;4.572;2022-12-29T07:25:08;6.72;;;1.48;;
45103;SDS011;30865;51.288;4.572;2022-12-29T07:27:34;3.38;;;1.50;;
45103;SDS011;30865;51.288;4.572;2022-12-29T07:29:59;4.10;;;1.60;;
45103;SDS011;30865;51.288;4.572;2022-12-29T07:32:25;4.93;;;1.90;;
45103;SDS011;30865;51.288;4.572;2022-12-29T07:34:50;2.92;;;1.27;;
45103;SDS011;30865;51.288;4.572;2022-12-29T07:37:17;1.98;;;1.33;;
45103;SDS011;30865;51.288;4.572;2022-12-29T07:39:43;2.80;;;2.30;;
45103;SDS011;30865;51.288;4.572;2022-12-29T07:42:09;1.75;;;1.30;;
45103;SDS011;30865;51.288;4.572;2022-12-29T07:44:34;3.92;;;1.42;;
45103;SDS011;30865;51.288;4.572;2022-12-29T07:47:01;1.42;;;1.10;;
45103;SDS011;30865;51.288;4.572;2022-12-29T07:49:27;5.70;;;1.80;;
45103;SDS011;30865;51.288;4.572;2022-12-29T07:51:52;3.92;;;1.60;;
45103;SDS011;30865;51.288;4.572;2022-12-29T07:54:18;4.63;;;1.67;;
45103;SDS011;30865;51.288;4.572;2022-12-29T07:56:44;5.53;;;1.27;;
45103;SDS011;30865;51.288;4.572;2022-12-29T07:59:09;1.98;;;1.42;;
45103;SDS011;30865;51.288;4.572;2022-12-29T08:01:36;2.92;;;1.55;;
45103;SDS011;30865;51.288;4.572;2022-12-29T08:04:02;5.35;;;2.25;;
45103;SDS011;30865;51.288;4.572;2022-12-29T08:06:28;4.28;;;2.33;;
45103;SDS011;30865;51.288;4.572;2022-12-29T08:08:55;1.98;;;1.50;;
45103;SDS011;30865;51.288;4.572;2022-12-29T08:11:21;5.35;;;2.08;;
45103;SDS011;30865;51.288;4.572;2022-12-29T08:13:47;6.95;;;2.60;;
45103;SDS011;30865;51.288;4.572;2022-12-29T08:16:12;2.35;;;1.10;;
45103;SDS011;30865;51.288;4.572;2022-12-29T08:18:38;3.28;;;1.77;;
45103;SDS011;30865;51.288;4.572;2022-12-29T08:21:03;4.80;;;1.65;;
45103;SDS011;30865;51.288;4.572;2022-12-29T08:23:29;6.18;;;2.30;;
45103;SDS011;30865;51.288;4.572;2022-12-29T08:25:58;2.95;;;1.35;;
45103;SDS011;30865;51.288;4.572;2022-12-29T08:28:25;5.55;;;2.10;;
45103;SDS011;30865;51.288;4.572;2022-12-29T08:30:51;4.90;;;2.53;;
45103;SDS011;30865;51.288;4.572;2022-12-29T08:33:17;4.63;;;2.25;;
45103;SDS011;30865;51.288;4.572;2022-12-29T08:35:42;4.25;;;2.35;;
45103;SDS011;30865;51.288;4.572;2022-12-29T08:38:08;11.35;;;2.90;;
45103;SDS011;30865;51.288;4.572;2022-12-29T08:40:36;9.82;;;3.28;;
45103;SDS011;30865;51.288;4.572;2022-12-29T08:43:01;11.48;;;3.92;;
45103;SDS011;30865;51.288;4.572;2022-12-29T08:45:27;3.58;;;1.98;;
45103;SDS011;30865;51.288;4.572;2022-12-29T08:47:52;7.28;;;1.98;;
45103;SDS011;30865;51.288;4.572;2022-12-29T08:50:18;2.95;;;1.63;;
45103;SDS011;30865;51.288;4.572;2022-12-29T08:52:43;2.45;;;1.40;;
45103;SDS011;30865;51.288;4.572;2022-12-29T08:55:09;9.20;;;1.38;;
45103;SDS011;30865;51.288;4.572;2022-12-29T08:57:34;2.65;;;1.13;;
45103;SDS011;30865;51.288;4.572;2022-12-29T09:00:00;3.75;;;1.27;;
45103;SDS011;30865;51.288;4.572;2022-12-29T09:02:26;2.28;;;1.75;;
45103;SDS011;30865;51.288;4.572;2022-12-29T09:04:51;2.00;;;0.90;;
45103;SDS011;30865;51.288;4.572;2022-12-29T09:07:17;3.17;;;1.25;;
45103;SDS011;30865;51.288;4.572;2022-12-29T09:09:42;4.28;;;1.10;;
45103;SDS011;30865;51.288;4.572;2022-12-29T09:12:08;3.22;;;1.50;;
45103;SDS011;30865;51.288;4.572;2022-12-29T09:14:33;5.13;;;1.80;;
45103;SDS011;30865;51.288;4.572;2022-12-29T09:16:59;4.82;;;1.88;;
45103;SDS011;30865;51.288;4.572;2022-12-29T09:19:43;9.98;;;1.92;;
45103;SDS011;30865;51.288;4.572;2022-12-29T09:22:08;7.90;;;1.23;;
45103;SDS011;30865;51.288;4.572;2022-12-29T09:24:34;3.45;;;1.35;;
45103;SDS011;30865;51.288;4.572;2022-12-29T09:26:59;10.10;;;1.80;;
45103;SDS011;30865;51.288;4.572;2022-12-29T09:29:25;3.03;;;0.95;;
45103;SDS011;30865;51.288;4.572;2022-12-29T09:31:50;1.98;;;1.30;;
45103;SDS011;30865;51.288;4.572;2022-12-29T09:34:16;3.60;;;0.80;;
45103;SDS011;30865;51.288;4.572;2022-12-29T09:36:41;3.83;;;1.70;;
45103;SDS011;30865;51.288;4.572;2022-12-29T09:39:07;1.60;;;0.80;;
45103;SDS011;30865;51.288;4.572;2022-12-29T09:41:43;4.10;;;1.30;;
45103;SDS011;30865;51.288;4.572;2022-12-29T09:44:20;2.22;;;1.10;;
45103;SDS011;30865;51.288;4.572;2022-12-29T09:50:22;6.07;;;1.25;;
45103;SDS011;30865;51.288;4.572;2022-12-29T09:53:01;2.08;;;1.20;;
45103;SDS011;30865;51.288;4.572;2022-12-29T09:55:41;3.58;;;1.00;;
45103;SDS011;30865;51.288;4.572;2022-12-29T09:58:13;5.03;;;1.35;;
45103;SDS011;30865;51.288;4.572;2022-12-29T10:00:48;3.55;;;1.13;;
45103;SDS011;30865;51.288;4.572;2022-12-29T10:03:19;1.65;;;1.25;;
45103;SDS011;30865;51.288;4.572;2022-12-29T10:08:37;4.88;;;1.63;;
45103;SDS011;30865;51.288;4.572;2022-12-29T10:11:27;8.05;;;2.40;;
45103;SDS011;30865;51.288;4.572;2022-12-29T10:17:10;2.35;;;0.90;;
45103;SDS011;30865;51.288;4.572;2022-12-29T10:20:10;3.53;;;1.60;;
45103;SDS011;30865;51.288;4.572;2022-12-29T10:22:49;4.95;;;1.48;;
45103;SDS011;30865;51.288;4.572;2022-12-29T10:25:29;2.42;;;1.20;;
45103;SDS011;30865;51.288;4.572;2022-12-29T10:28:00;5.53;;;1.35;;
45103;SDS011;30865;51.288;4.572;2022-12-29T10:30:40;0.90;;;0.90;;
45103;SDS011;30865;51.288;4.572;2022-12-29T10:33:06;3.25;;;1.10;;
45103;SDS011;30865;51.288;4.572;2022-12-29T10:35:40;3.58;;;1.15;;
45103;SDS011;30865;51.288;4.572;2022-12-29T10:38:27;4.88;;;1.63;;
45103;SDS011;30865;51.288;4.572;2022-12-29T10:41:15;3.58;;;1.08;;
45103;SDS011;30865;51.288;4.572;2022-12-29T10:43:50;1.63;;;1.17;;
45103;SDS011;30865;51.288;4.572;2022-12-29T10:46:18;3.20;;;1.08;;
45103;SDS011;30865;51.288;4.572;2022-12-29T10:48:50;2.40;;;1.45;;
45103;SDS011;30865;51.288;4.572;2022-12-29T10:51:27;4.75;;;1.55;;
45103;SDS011;30865;51.288;4.572;2022-12-29T10:56:50;15.20;;;1.75;;
45103;SDS011;30865;51.288;4.572;2022-12-29T10:59:20;3.08;;;1.05;;
45103;SDS011;30865;51.288;4.572;2022-12-29T11:02:06;6.75;;;1.25;;
45103;SDS011;30865;51.288;4.572;2022-12-29T11:07:58;4.03;;;1.52;;
45103;SDS011;30865;51.288;4.572;2022-12-29T11:10:34;6.68;;;1.60;;
45103;SDS011;30865;51.288;4.572;2022-12-29T11:13:10;2.03;;;1.33;;
45103;SDS011;30865;51.288;4.572;2022-12-29T11:15:45;3.13;;;1.23;;
45103;SDS011;30865;51.288;4.572;2022-12-29T11:20:50;2.33;;;1.02;;
45103;SDS011;30865;51.288;4.572;2022-12-29T11:23:23;1.90;;;1.40;;
45103;SDS011;30865;51.288;4.572;2022-12-29T11:28:35;5.55;;;1.00;;
45103;SDS011;30865;51.288;4.572;2022-12-29T11:31:03;3.05;;;1.52;;
45103;SDS011;30865;51.288;4.572;2022-12-29T11:33:31;4.53;;;1.13;;
45103;SDS011;30865;51.288;4.572;2022-12-29T11:36:05;4.18;;;1.15;;
45103;SDS011;30865;51.288;4.572;2022-12-29T11:38:54;2.90;;;1.20;;
45103;SDS011;30865;51.288;4.572;2022-12-29T11:41:26;4.18;;;1.35;;
45103;SDS011;30865;51.288;4.572;2022-12-29T11:43:55;2.40;;;1.13;;
45103;SDS011;30865;51.288;4.572;2022-12-29T11:46:24;3.22;;;1.35;;
45103;SDS011;30865;51.288;4.572;2022-12-29T11:48:53;3.88;;;1.10;;
45103;SDS011;30865;51.288;4.572;2022-12-29T11:51:23;2.15;;;0.93;;
45103;SDS011;30865;51.288;4.572;2022-12-29T11:53:56;4.38;;;1.70;;
45103;SDS011;30865;51.288;4.572;2022-12-29T11:56:44;1.70;;;1.05;;
45103;SDS011;30865;51.288;4.572;2022-12-29T11:59:34;2.55;;;1.13;;
45103;SDS011;30865;51.288;4.572;2022-12-29T12:02:09;3.10;;;1.00;;
45103;SDS011;30865;51.288;4.572;2022-12-29T12:08:03;2.35;;;1.15;;
45103;SDS011;30865;51.288;4.572;2022-12-29T12:10:39;1.50;;;0.80;;
45103;SDS011;30865;51.288;4.572;2022-12-29T12:16:08;1.02;;;0.93;;
45103;SDS011;30865;51.288;4.572;2022-12-29T12:18:39;3.03;;;1.10;;
45103;SDS011;30865;51.288;4.572;2022-12-29T12:21:14;1.55;;;1.15;;
45103;SDS011;30865;51.288;4.572;2022-12-29T12:23:59;3.13;;;0.70;;
45103;SDS011;30865;51.288;4.572;2022-12-29T12:26:56;3.00;;;1.00;;
45103;SDS011;30865;51.288;4.572;2022-12-29T12:29:37;2.42;;;0.90;;
45103;SDS011;30865;51.288;4.572;2022-12-29T12:32:16;2.60;;;1.00;;
45103;SDS011;30865;51.288;4.572;2022-12-29T12:34:48;3.17;;;1.80;;
45103;SDS011;30865;51.288;4.572;2022-12-29T12:37:31;2.97;;;1.10;;
45103;SDS011;30865;51.288;4.572;2022-12-29T12:40:21;3.78;;;1.33;;
45103;SDS011;30865;51.288;4.572;2022-12-29T12:46:07;1.75;;;1.15;;
45103;SDS011;30865;51.288;4.572;2022-12-29T13:00:19;3.22;;;2.13;;
45103;SDS011;30865;51.288;4.572;2022-12-29T13:03:04;3.45;;;1.55;;
45103;SDS011;30865;51.288;4.572;2022-12-29T13:06:16;3.03;;;1.30;;
45103;SDS011;30865;51.288;4.572;2022-12-29T13:11:38;1.35;;;1.05;;
45103;SDS011;30865;51.288;4.572;2022-12-29T13:19:34;2.25;;;1.35;;
45103;SDS011;30865;51.288;4.572;2022-12-29T13:22:13;3.13;;;1.45;;
45103;SDS011;30865;51.288;4.572;2022-12-29T13:24:51;4.07;;;1.40;;
45103;SDS011;30865;51.288;4.572;2022-12-29T13:27:42;2.22;;;1.42;;
45103;SDS011;30865;51.288;4.572;2022-12-29T13:39:13;2.97;;;1.15;;
45103;SDS011;30865;51.288;4.572;2022-12-29T13:44:23;1.95;;;1.02;;
45103;SDS011;30865;51.288;4.572;2022-12-29T13:47:32;5.00;;;1.17;;
45103;SDS011;30865;51.288;4.572;2022-12-29T13:50:08;1.23;;;1.08;;
45103;SDS011;30865;51.288;4.572;2022-12-29T13:52:52;2.05;;;1.33;;
45103;SDS011;30865;51.288;4.572;2022-12-29T13:58:11;1.40;;;1.10;;
45103;SDS011;30865;51.288;4.572;2022-12-29T14:08:49;2.95;;;1.30;;
45103;SDS011;30865;51.288;4.572;2022-12-29T14:11:22;2.25;;;1.70;;
45103;SDS011;30865;51.288;4.572;2022-12-29T14:13:53;2.13;;;1.60;;
45103;SDS011;30865;51.288;4.572;2022-12-29T14:18:50;3.25;;;1.58;;
45103;SDS011;30865;51.288;4.572;2022-12-29T14:21:19;3.88;;;1.58;;
45103;SDS011;30865;51.288;4.572;2022-12-29T14:23:48;1.55;;;1.27;;
45103;SDS011;30865;51.288;4.572;2022-12-29T14:26:16;2.88;;;1.52;;
45103;SDS011;30865;51.288;4.572;2022-12-29T14:29:15;1.83;;;1.30;;
45103;SDS011;30865;51.288;4.572;2022-12-29T14:31:48;4.05;;;1.42;;
45103;SDS011;30865;51.288;4.572;2022-12-29T14:36:42;4.03;;;1.45;;
45103;SDS011;30865;51.288;4.572;2022-12-29T14:39:31;2.22;;;1.52;;
45103;SDS011;30865;51.288;4.572;2022-12-29T14:44:34;2.08;;;1.30;;
45103;SDS011;30865;51.288;4.572;2022-12-29T14:47:11;3.17;;;1.58;;
45103;SDS011;30865;51.288;4.572;2022-12-29T14:49:44;2.75;;;1.60;;
45103;SDS011;30865;51.288;4.572;2022-12-29T14:52:21;2.35;;;1.40;;
45103;SDS011;30865;51.288;4.572;2022-12-29T14:57:35;6.18;;;1.58;;
45103;SDS011;30865;51.288;4.572;2022-12-29T15:00:06;2.75;;;1.73;;
45103;SDS011;30865;51.288;4.572;2022-12-29T15:02:49;5.50;;;1.80;;
45103;SDS011;30865;51.288;4.572;2022-12-29T15:05:40;5.53;;;1.88;;
45103;SDS011;30865;51.288;4.572;2022-12-29T15:08:09;5.47;;;2.00;;
45103;SDS011;30865;51.288;4.572;2022-12-29T15:10:38;7.70;;;2.15;;
45103;SDS011;30865;51.288;4.572;2022-12-29T15:13:16;1.75;;;1.30;;
45103;SDS011;30865;51.288;4.572;2022-12-29T15:15:46;2.53;;;1.70;;
45103;SDS011;30865;51.288;4.572;2022-12-29T15:18:13;3.88;;;1.60;;
45103;SDS011;30865;51.288;4.572;2022-12-29T15:20:46;7.10;;;1.90;;
45103;SDS011;30865;51.288;4.572;2022-12-29T15:23:17;2.78;;;1.75;;
45103;SDS011;30865;51.288;4.572;2022-12-29T15:25:47;4.22;;;1.50;;
45103;SDS011;30865;51.288;4.572;2022-12-29T15:28:19;2.97;;;1.30;;
45103;SDS011;30865;51.288;4.572;2022-12-29T15:30:53;2.67;;;1.35;;
45103;SDS011;30865;51.288;4.572;2022-12-29T15:33:27;4.95;;;1.90;;
45103;SDS011;30865;51.288;4.572;2022-12-29T15:35:54;4.85;;;1.83;;
45103;SDS011;30865;51.288;4.572;2022-12-29T15:38:23;3.15;;;1.35;;
45103;SDS011;30865;51.288;4.572;2022-12-29T15:40:54;5.75;;;1.88;;
45103;SDS011;30865;51.288;4.572;2022-12-29T15:43:25;3.88;;;1.60;;
45103;SDS011;30865;51.288;4.572;2022-12-29T15:46:07;6.50;;;2.35;;
45103;SDS011;30865;51.288;4.572;2022-12-29T15:48:35;3.30;;;1.70;;
45103;SDS011;30865;51.288;4.572;2022-12-29T15:51:00;3.80;;;1.42;;
45103;SDS011;30865;51.288;4.572;2022-12-29T15:53:30;3.08;;;1.35;;
45103;SDS011;30865;51.288;4.572;2022-12-29T15:56:01;2.22;;;1.73;;
45103;SDS011;30865;51.288;4.572;2022-12-29T15:58:38;4.75;;;1.60;;
45103;SDS011;30865;51.288;4.572;2022-12-29T16:01:15;2.75;;;1.50;;
45103;SDS011;30865;51.288;4.572;2022-12-29T16:03:42;1.60;;;1.50;;
45103;SDS011;30865;51.288;4.572;2022-12-29T16:06:10;5.00;;;1.65;;
45103;SDS011;30865;51.288;4.572;2022-12-29T16:08:55;3.05;;;1.08;;
45103;SDS011;30865;51.288;4.572;2022-12-29T16:11:29;2.08;;;1.10;;
45103;SDS011;30865;51.288;4.572;2022-12-29T16:14:24;4.13;;;1.15;;
45103;SDS011;30865;51.288;4.572;2022-12-29T16:16:57;1.52;;;0.90;;
45103;SDS011;30865;51.288;4.572;2022-12-29T16:19:32;1.60;;;0.87;;
45103;SDS011;30865;51.288;4.572;2022-12-29T16:22:00;1.10;;;0.75;;
45103;SDS011;30865;51.288;4.572;2022-12-29T16:24:29;1.13;;;0.63;;
45103;SDS011;30865;51.288;4.572;2022-12-29T16:29:41;1.48;;;0.70;;
45103;SDS011;30865;51.288;4.572;2022-12-29T16:32:26;2.33;;;0.77;;
45103;SDS011;30865;51.288;4.572;2022-12-29T16:35:27;1.08;;;0.60;;
45103;SDS011;30865;51.288;4.572;2022-12-29T16:37:47;1.63;;;1.20;;
45103;SDS011;30865;51.288;4.572;2022-12-29T16:40:32;1.98;;;0.60;;
45103;SDS011;30865;51.288;4.572;2022-12-29T16:42:58;1.40;;;1.00;;
45103;SDS011;30865;51.288;4.572;2022-12-29T16:50:44;0.82;;;0.43;;
45103;SDS011;30865;51.288;4.572;2022-12-29T16:53:21;3.38;;;0.73;;
45103;SDS011;30865;51.288;4.572;2022-12-29T16:56:00;1.42;;;0.85;;
45103;SDS011;30865;51.288;4.572;2022-12-29T16:58:28;0.95;;;0.85;;
45103;SDS011;30865;51.288;4.572;2022-12-29T17:00:56;1.17;;;1.00;;
45103;SDS011;30865;51.288;4.572;2022-12-29T17:03:25;2.47;;;1.42;;
45103;SDS011;30865;51.288;4.572;2022-12-29T17:08:39;4.50;;;1.02;;
45103;SDS011;30865;51.288;4.572;2022-12-29T17:11:07;3.40;;;1.42;;
45103;SDS011;30865;51.288;4.572;2022-12-29T17:16:56;1.58;;;0.80;;
45103;SDS011;30865;51.288;4.572;2022-12-29T17:19:29;10.73;;;1.48;;